createdAt,value
2023-10-23T00:00:08.682Z,8.35
2023-10-23T00:06:33.439Z,8.38
2023-10-23T00:11:55.538Z,8.36
2023-10-23T00:16:57.803Z,8.33
2023-10-23T00:21:59.998Z,8.30
2023-10-23T00:27:13.168Z,8.27
2023-10-23T00:32:15.352Z,8.23
2023-10-23T00:38:17.117Z,8.21
2023-10-23T00:44:38.941Z,8.19
2023-10-23T00:51:01.020Z,8.17
2023-10-23T00:57:22.894Z,8.14
2023-10-23T01:03:44.686Z,8.09
2023-10-23T01:09:07.423Z,8.03
2023-10-23T01:14:37.345Z,7.99
2023-10-23T01:19:39.630Z,8.00
2023-10-23T01:24:44.635Z,8.02
2023-10-23T01:29:47.401Z,8.01
2023-10-23T01:35:49.290Z,7.99
2023-10-23T01:42:11.242Z,7.92
2023-10-23T01:48:33.311Z,7.86
2023-10-23T01:54:55.286Z,7.79
2023-10-23T02:01:17.200Z,7.75
2023-10-23T02:07:39.164Z,7.74
2023-10-23T02:13:01.087Z,7.69
2023-10-23T02:18:03.174Z,7.65
2023-10-23T02:24:05.196Z,7.62
2023-10-23T02:30:06.931Z,7.58
2023-10-23T02:35:10.044Z,7.55
2023-10-23T02:41:12.107Z,7.53
2023-10-23T02:47:33.895Z,7.51
2023-10-23T02:53:55.747Z,7.51
2023-10-23T03:00:17.557Z,7.53
2023-10-23T03:05:40.644Z,7.57
2023-10-23T03:10:43.522Z,7.57
2023-10-23T03:16:45.393Z,7.55
2023-10-23T03:22:07.944Z,7.52
2023-10-23T03:28:09.789Z,7.53
2023-10-23T03:34:31.674Z,7.54
2023-10-23T03:40:54.099Z,7.60
2023-10-23T03:46:17.710Z,7.65
2023-10-23T03:52:20.021Z,7.64
2023-10-23T03:57:42.673Z,7.58
2023-10-23T04:02:45.107Z,7.54
2023-10-23T04:07:47.611Z,7.52
2023-10-23T04:12:50.008Z,7.49
2023-10-23T04:17:52.026Z,7.47
2023-10-23T04:22:54.341Z,7.44
2023-10-23T04:27:56.907Z,7.42
2023-10-23T04:33:00.672Z,7.45
2023-10-23T04:38:03.827Z,7.47
2023-10-23T04:43:06.061Z,7.44
2023-10-23T04:48:08.230Z,7.45
2023-10-23T04:53:10.325Z,7.47
2023-10-23T04:58:12.331Z,7.50
2023-10-23T05:03:14.646Z,7.51
2023-10-23T05:08:16.885Z,7.53
2023-10-23T05:13:18.980Z,7.53
2023-10-23T05:18:20.984Z,7.52
2023-10-23T05:23:23.142Z,7.49
2023-10-23T05:28:26.669Z,7.51
2023-10-23T05:33:28.973Z,7.57
2023-10-23T05:39:30.836Z,7.64
2023-10-23T05:44:52.967Z,7.72
2023-10-23T05:49:55.001Z,7.79
2023-10-23T05:54:57.362Z,7.85
2023-10-23T05:59:59.709Z,7.88
2023-10-23T06:05:01.757Z,7.93
2023-10-23T06:10:05.397Z,7.96
2023-10-23T06:15:11.518Z,7.98
2023-10-23T06:20:13.649Z,8.02
2023-10-23T06:25:15.743Z,8.06
2023-10-23T06:30:17.761Z,8.10
2023-10-23T06:35:19.810Z,8.15
2023-10-23T06:40:22.043Z,8.19
2023-10-23T06:45:25.915Z,8.36
2023-10-23T06:50:35.992Z,8.43
2023-10-23T06:55:38.193Z,8.57
2023-10-23T07:00:40.496Z,8.72
2023-10-23T07:05:42.548Z,8.84
2023-10-23T07:10:44.888Z,9.01
2023-10-23T07:15:47.193Z,9.24
2023-10-23T07:21:02.447Z,9.43
2023-10-23T07:26:11.857Z,9.65
2023-10-23T07:31:14.852Z,9.86
2023-10-23T07:36:17.381Z,9.96
2023-10-23T07:41:19.720Z,10.06
2023-10-23T07:46:22.074Z,10.11
2023-10-23T07:51:24.192Z,10.22
2023-10-23T07:56:26.568Z,10.39
2023-10-23T08:01:29.091Z,10.81
2023-10-23T08:06:31.777Z,11.13
2023-10-23T08:11:33.940Z,11.08
2023-10-23T08:16:36.046Z,11.01
2023-10-23T08:21:37.961Z,10.98
2023-10-23T08:26:41.065Z,10.93
2023-10-23T08:31:43.366Z,10.93
2023-10-23T08:36:45.435Z,10.97
2023-10-23T08:41:49.757Z,11.16
2023-10-23T08:46:52.133Z,11.39
2023-10-23T08:51:55.285Z,11.73
2023-10-23T08:57:00.463Z,12.06
2023-10-23T09:02:02.802Z,12.39
2023-10-23T09:07:05.223Z,12.65
2023-10-23T09:12:07.813Z,13.01
2023-10-23T09:17:10.158Z,13.53
2023-10-23T09:22:12.531Z,14.16
2023-10-23T09:27:14.546Z,14.62
2023-10-23T09:32:17.024Z,14.92
2023-10-23T09:37:19.592Z,15.46
2023-10-23T09:42:32.529Z,16.04
2023-10-23T09:47:36.677Z,16.14
2023-10-23T09:52:40.802Z,16.33
2023-10-23T09:57:49.961Z,16.57
2023-10-23T10:02:55.820Z,16.50
2023-10-23T10:08:08.449Z,16.55
2023-10-23T10:13:14.757Z,16.83
2023-10-23T10:18:17.863Z,17.23
2023-10-23T10:23:20.973Z,17.58
2023-10-23T10:28:27.846Z,18.14
2023-10-23T10:34:22.767Z,18.40
2023-10-23T10:38:55.354Z,18.62
2023-10-23T10:43:57.994Z,19.03
2023-10-23T10:49:00.170Z,19.49
2023-10-23T10:54:12.748Z,20.00
2023-10-23T10:59:15.097Z,20.12
2023-10-23T11:04:17.711Z,20.16
2023-10-23T11:09:23.000Z,20.28
2023-10-23T11:14:26.226Z,20.15
2023-10-23T11:19:28.951Z,20.37
2023-10-23T11:24:31.607Z,20.75
2023-10-23T11:29:49.622Z,21.05
2023-10-23T11:34:51.677Z,21.13
2023-10-23T11:39:53.702Z,20.87
2023-10-23T11:44:58.680Z,20.78
2023-10-23T11:50:01.408Z,21.19
2023-10-23T11:55:07.753Z,21.20
2023-10-23T12:00:13.337Z,21.15
2023-10-23T12:05:20.986Z,21.07
2023-10-23T12:10:28.691Z,20.68
2023-10-23T12:15:30.883Z,20.22
2023-10-23T12:20:34.206Z,20.41
2023-10-23T12:25:36.348Z,20.82
2023-10-23T12:30:38.558Z,21.07
2023-10-23T12:35:41.863Z,21.28
2023-10-23T12:40:45.079Z,21.30
2023-10-23T12:45:48.349Z,21.26
2023-10-23T12:50:50.695Z,21.35
2023-10-23T12:55:53.068Z,21.39
2023-10-23T13:00:55.746Z,21.31
2023-10-23T13:05:58.028Z,21.38
2023-10-23T13:11:00.790Z,21.21
2023-10-23T13:16:03.009Z,20.96
2023-10-23T13:21:33.550Z,20.62
2023-10-23T13:26:30.357Z,20.17
2023-10-23T13:31:32.697Z,20.01
2023-10-23T13:36:35.030Z,20.09
2023-10-23T13:41:37.515Z,19.97
2023-10-23T13:46:40.100Z,19.64
2023-10-23T13:51:42.209Z,19.30
2023-10-23T13:56:46.764Z,18.99
2023-10-23T14:01:49.086Z,18.83
2023-10-23T14:06:51.355Z,18.70
2023-10-23T14:12:00.841Z,18.61
2023-10-23T14:17:05.112Z,18.48
2023-10-23T14:22:07.434Z,18.35
2023-10-23T14:27:10.640Z,18.12
2023-10-23T14:32:13.299Z,17.89
2023-10-23T14:37:15.457Z,17.80
2023-10-23T14:42:17.885Z,17.63
2023-10-23T14:47:20.217Z,17.38
2023-10-23T14:52:22.623Z,17.16
2023-10-23T14:57:24.918Z,16.92
2023-10-23T15:02:28.986Z,16.67
2023-10-23T15:07:31.390Z,16.42
2023-10-23T15:12:33.778Z,16.19
2023-10-23T15:17:36.159Z,15.99
2023-10-23T15:22:38.687Z,15.79
2023-10-23T15:27:41.727Z,15.59
2023-10-23T15:32:44.039Z,15.32
2023-10-23T15:37:46.868Z,14.95
2023-10-23T15:42:49.252Z,14.67
2023-10-23T15:47:51.724Z,14.46
2023-10-23T15:52:54.494Z,14.23
2023-10-23T15:57:58.082Z,14.06
2023-10-23T16:03:01.256Z,13.91
2023-10-23T16:08:06.220Z,13.77
2023-10-23T16:13:09.018Z,13.62
2023-10-23T16:18:13.049Z,13.45
2023-10-23T16:23:15.671Z,13.28
2023-10-23T16:28:18.290Z,13.08
2023-10-23T16:33:32.586Z,12.91
2023-10-23T16:38:35.319Z,12.75
2023-10-23T16:43:41.692Z,12.62
2023-10-23T16:48:46.600Z,12.53
2023-10-23T16:53:51.942Z,12.43
2023-10-23T16:58:54.695Z,12.33
2023-10-23T17:03:57.485Z,12.28
2023-10-23T17:08:59.955Z,12.25
2023-10-23T17:14:02.260Z,12.16
2023-10-23T17:19:06.632Z,12.10
2023-10-23T17:24:09.698Z,12.03
2023-10-23T17:29:12.395Z,11.90
2023-10-23T17:34:15.065Z,11.77
2023-10-23T17:39:17.838Z,11.50
2023-10-23T17:44:22.000Z,11.27
2023-10-23T17:49:27.064Z,11.23
2023-10-23T17:54:29.721Z,11.30
2023-10-23T17:59:38.077Z,11.33
2023-10-23T18:04:43.415Z,11.26
2023-10-23T18:09:46.441Z,11.17
2023-10-23T18:14:52.775Z,11.12
2023-10-23T18:20:01.325Z,11.13
2023-10-23T18:25:22.483Z,11.11
2023-10-23T18:30:26.865Z,11.02
2023-10-23T18:35:30.798Z,10.88
2023-10-23T18:40:40.875Z,10.78
2023-10-23T18:45:44.967Z,10.73
2023-10-23T18:50:49.613Z,10.68
2023-10-23T18:55:52.371Z,10.57
2023-10-23T19:00:55.836Z,10.45
2023-10-23T19:07:13.221Z,10.33
2023-10-23T19:13:35.637Z,10.16
2023-10-23T19:19:58.646Z,10.00
2023-10-23T19:25:44.452Z,9.91
2023-10-23T19:30:51.489Z,9.85
2023-10-23T19:36:02.706Z,9.76
2023-10-23T19:41:52.068Z,9.66
2023-10-23T19:47:54.187Z,9.54
2023-10-23T19:54:37.574Z,9.46
2023-10-23T20:00:52.821Z,9.36
2023-10-23T20:07:15.214Z,9.24
2023-10-23T20:12:38.882Z,9.16
2023-10-23T20:17:45.711Z,9.16
2023-10-23T20:23:08.196Z,9.15
2023-10-23T20:28:11.296Z,9.08
2023-10-23T20:33:13.838Z,9.02
2023-10-23T20:38:37.186Z,9.00
2023-10-23T20:43:46.628Z,9.03
2023-10-23T20:49:17.461Z,9.06
2023-10-23T20:54:30.246Z,9.11
2023-10-23T20:59:34.247Z,9.22
2023-10-23T21:04:37.393Z,9.27
2023-10-23T21:09:42.365Z,9.30
2023-10-23T21:14:53.730Z,9.35
2023-10-23T21:20:00.146Z,9.42
2023-10-23T21:25:04.913Z,9.47
2023-10-23T21:30:08.156Z,9.45
2023-10-23T21:35:11.810Z,9.42
2023-10-23T21:40:14.367Z,9.45
2023-10-23T21:45:17.221Z,9.50
2023-10-23T21:50:19.841Z,9.53
2023-10-23T21:55:24.787Z,9.55
2023-10-23T22:00:32.229Z,9.53
2023-10-23T22:05:34.900Z,9.54
2023-10-23T22:10:37.384Z,9.51
2023-10-23T22:15:40.159Z,9.41
2023-10-23T22:20:42.734Z,9.30
2023-10-23T22:25:45.180Z,9.22
2023-10-23T22:31:47.914Z,9.23
2023-10-23T22:38:02.877Z,9.11
2023-10-23T22:42:22.105Z,9.03
2023-10-23T22:47:24.686Z,8.94
2023-10-23T22:52:28.007Z,8.86
2023-10-23T22:57:40.904Z,8.81
2023-10-23T23:02:44.035Z,8.72
2023-10-23T23:07:55.711Z,8.63
2023-10-23T23:13:05.142Z,8.54
2023-10-23T23:18:08.653Z,8.51
2023-10-23T23:23:10.937Z,8.50
2023-10-23T23:28:17.274Z,8.46
2023-10-23T23:33:19.813Z,8.36
2023-10-23T23:38:25.574Z,8.29
2023-10-23T23:43:48.951Z,8.31
2023-10-23T23:49:08.105Z,8.33
2023-10-23T23:54:14.851Z,8.29
2023-10-23T23:59:17.400Z,8.28
